createdAt,value
2018-04-23T00:01:05.771Z,6.07
2018-04-23T00:05:09.216Z,7.30
2018-04-23T00:09:12.671Z,6.90
2018-04-23T00:13:15.369Z,6.93
2018-04-23T00:17:17.979Z,6.43
2018-04-23T00:21:20.624Z,7.10
2018-04-23T00:25:23.256Z,7.43
2018-04-23T00:29:25.900Z,7.00
2018-04-23T00:33:28.544Z,7.20
2018-04-23T00:37:31.975Z,7.43
2018-04-23T00:41:34.621Z,6.90
2018-04-23T00:45:37.268Z,7.70
2018-04-23T00:49:40.021Z,8.17
2018-04-23T00:53:42.700Z,8.33
2018-04-23T00:57:46.082Z,8.70
2018-04-23T01:01:48.829Z,8.43
2018-04-23T01:05:51.523Z,8.27
2018-04-23T01:09:54.157Z,9.43
2018-04-23T01:13:56.793Z,8.70
2018-04-23T01:17:59.465Z,9.93
2018-04-23T01:22:02.112Z,8.40
2018-04-23T01:26:04.756Z,9.17
2018-04-23T01:30:07.401Z,8.43
2018-04-23T01:34:10.052Z,8.70
2018-04-23T01:38:12.668Z,8.70
2018-04-23T01:42:15.409Z,9.87
2018-04-23T01:46:18.049Z,9.83
2018-04-23T01:50:20.691Z,9.30
2018-04-23T01:54:23.336Z,9.73
2018-04-23T01:58:25.972Z,9.93
2018-04-23T02:02:28.611Z,9.57
2018-04-23T02:06:31.304Z,10.20
2018-04-23T02:10:33.953Z,11.87
2018-04-23T02:14:36.604Z,11.53
2018-04-23T02:18:39.979Z,12.30
2018-04-23T02:22:42.633Z,11.97
2018-04-23T02:26:45.289Z,11.67
2018-04-23T02:30:47.941Z,13.03
2018-04-23T02:34:50.585Z,12.33
2018-04-23T02:38:53.196Z,12.43
2018-04-23T02:42:55.859Z,13.43
2018-04-23T02:46:58.563Z,12.67
2018-04-23T02:51:01.216Z,12.90
2018-04-23T02:55:04.630Z,12.07
2018-04-23T02:59:07.239Z,12.67
2018-04-23T03:03:09.885Z,12.57
2018-04-23T03:07:13.365Z,12.50
2018-04-23T03:11:16.007Z,11.27
2018-04-23T03:15:18.682Z,11.53
2018-04-23T03:19:22.053Z,10.93
2018-04-23T03:23:24.704Z,10.53
2018-04-23T03:27:27.347Z,11.00
2018-04-23T03:31:30.765Z,10.00
2018-04-23T03:35:34.132Z,9.77
2018-04-23T03:39:36.785Z,9.20
2018-04-23T03:43:39.432Z,8.60
2018-04-23T03:47:42.071Z,9.23
2018-04-23T03:51:44.709Z,9.40
2018-04-23T03:55:47.315Z,10.47
2018-04-23T03:59:50.729Z,10.43
2018-04-23T04:03:53.390Z,10.60
2018-04-23T04:07:56.040Z,11.00
2018-04-23T04:12:04.712Z,11.53
2018-04-23T04:16:19.323Z,11.63
2018-04-23T04:20:21.972Z,12.10
2018-04-23T04:24:25.387Z,13.00
2018-04-23T04:28:28.063Z,12.70
2018-04-23T04:32:31.580Z,13.50
2018-04-23T04:36:34.952Z,15.47
2018-04-23T04:40:37.604Z,16.77
2018-04-23T04:44:40.319Z,17.60
2018-04-23T04:48:42.955Z,18.73
2018-04-23T04:52:46.372Z,20.03
2018-04-23T04:56:49.735Z,20.00
2018-04-23T05:00:52.398Z,21.97
2018-04-23T05:04:55.040Z,23.00
2018-04-23T05:08:58.459Z,25.47
2018-04-23T05:13:01.075Z,24.57
2018-04-23T05:17:03.754Z,25.70
2018-04-23T05:21:06.395Z,23.40
2018-04-23T05:25:09.031Z,24.67
2018-04-23T05:29:11.680Z,26.00
2018-04-23T05:33:14.279Z,26.07
2018-04-23T05:37:17.745Z,25.57
2018-04-23T05:41:20.393Z,25.77
2018-04-23T05:45:23.096Z,27.20
2018-04-23T05:49:25.800Z,26.47
2018-04-23T05:53:28.404Z,26.53
2018-04-23T05:57:31.856Z,25.07
2018-04-23T06:01:35.272Z,25.40
2018-04-23T06:05:37.919Z,24.43
2018-04-23T06:09:40.576Z,24.00
2018-04-23T06:13:43.284Z,23.50
2018-04-23T06:17:46.741Z,21.73
2018-04-23T06:21:49.387Z,21.77
2018-04-23T06:25:52.041Z,21.00
2018-04-23T06:29:54.647Z,20.83
2018-04-23T06:33:57.621Z,18.87
2018-04-23T06:38:00.281Z,18.77
2018-04-23T06:42:03.686Z,16.73
2018-04-23T06:46:07.151Z,16.80
2018-04-23T06:50:09.735Z,15.97
2018-04-23T06:54:12.423Z,16.53
2018-04-23T06:58:15.075Z,16.07
2018-04-23T07:02:17.717Z,14.53
2018-04-23T07:06:20.417Z,13.07
2018-04-23T07:10:23.048Z,13.90
2018-04-23T07:14:25.689Z,12.13
2018-04-23T07:18:28.335Z,12.27
2018-04-23T07:22:30.982Z,13.40
2018-04-23T07:26:34.451Z,12.50
2018-04-23T07:30:37.047Z,11.93
2018-04-23T07:34:39.698Z,12.73
2018-04-23T07:38:42.354Z,13.07
2018-04-23T07:42:45.759Z,10.47
2018-04-23T07:50:40.341Z,11.17
2018-04-23T07:54:42.984Z,9.07
2018-04-23T07:58:46.397Z,9.47
2018-04-23T08:02:49.804Z,9.83
2018-04-23T08:06:52.424Z,9.27
2018-04-23T08:10:55.136Z,9.40
2018-04-23T08:14:57.781Z,9.37
2018-04-23T08:19:00.418Z,9.73
2018-04-23T08:23:03.056Z,8.20
2018-04-23T08:27:05.684Z,8.30
2018-04-23T08:31:08.316Z,6.80
2018-04-23T08:35:11.728Z,6.20
2018-04-23T08:39:15.133Z,5.57
2018-04-23T08:43:18.536Z,5.30
2018-04-23T08:47:21.943Z,4.67
2018-04-23T08:51:25.362Z,3.80
2018-04-23T08:55:27.997Z,3.83
2018-04-23T08:59:30.637Z,5.40
2018-04-23T09:03:33.237Z,4.80
2018-04-23T09:07:35.883Z,4.97
2018-04-23T09:11:38.528Z,4.97
2018-04-23T09:15:41.165Z,4.83
2018-04-23T09:19:44.619Z,5.83
2018-04-23T09:23:47.217Z,4.67
2018-04-23T09:31:54.239Z,5.73
2018-04-23T09:35:56.852Z,5.13
2018-04-23T09:39:59.488Z,5.63
2018-04-23T09:44:02.099Z,5.83
2018-04-23T09:48:04.741Z,5.63
2018-04-23T09:52:08.148Z,5.90
2018-04-23T09:56:11.552Z,6.80
2018-04-23T10:00:14.960Z,6.37
2018-04-23T10:04:21.298Z,6.40
2018-04-23T10:08:23.932Z,5.30
2018-04-23T10:12:26.572Z,4.97
2018-04-23T10:16:29.264Z,5.50
2018-04-23T10:20:31.972Z,4.93
2018-04-23T10:24:34.612Z,4.93
2018-04-23T10:28:37.246Z,5.20
2018-04-23T10:32:39.880Z,5.43
2018-04-23T10:36:42.516Z,5.10
2018-04-23T10:40:45.164Z,5.17
2018-04-23T10:44:47.768Z,4.40
2018-04-23T10:48:50.406Z,4.67
2018-04-23T10:52:53.044Z,3.73
2018-04-23T10:56:55.683Z,3.80
2018-04-23T11:00:58.320Z,4.13
2018-04-23T11:05:00.918Z,4.43
2018-04-23T11:09:03.659Z,4.30
2018-04-23T11:13:06.352Z,3.93
2018-04-23T11:17:08.987Z,4.20
2018-04-23T11:21:11.616Z,4.40
2018-04-23T11:25:15.029Z,4.07
2018-04-23T11:29:17.695Z,4.43
2018-04-23T11:33:21.103Z,4.50
2018-04-23T11:37:24.503Z,3.10
2018-04-23T11:41:27.908Z,4.20
2018-04-23T11:45:30.565Z,3.00
2018-04-23T11:49:33.207Z,3.53
2018-04-23T11:53:35.923Z,4.17
2018-04-23T11:57:38.553Z,4.07
2018-04-23T12:01:41.187Z,4.57
2018-04-23T12:05:43.780Z,4.90
2018-04-23T12:09:46.425Z,4.60
2018-04-23T12:13:49.871Z,4.27
2018-04-23T12:17:52.520Z,3.77
2018-04-23T12:21:55.242Z,4.33
2018-04-23T12:25:57.844Z,4.60
2018-04-23T12:30:00.484Z,4.00
2018-04-23T12:34:03.159Z,4.13
2018-04-23T12:38:05.849Z,4.27
2018-04-23T12:42:08.484Z,4.57
2018-04-23T12:46:11.132Z,4.10
2018-04-23T12:50:13.752Z,3.80
2018-04-23T12:54:16.427Z,3.70
2018-04-23T12:58:19.824Z,3.53
2018-04-23T13:02:22.465Z,3.80
2018-04-23T13:06:25.061Z,3.37
2018-04-23T13:10:27.732Z,3.63
2018-04-23T13:14:30.391Z,3.83
2018-04-23T13:18:33.796Z,3.37
2018-04-23T13:22:37.260Z,3.07
2018-04-23T13:26:39.862Z,3.37
2018-04-23T13:30:42.551Z,3.77
2018-04-23T13:34:45.183Z,2.90
2018-04-23T13:38:47.816Z,3.60
2018-04-23T13:42:50.453Z,3.30
2018-04-23T13:46:53.051Z,3.50
2018-04-23T13:50:55.736Z,3.27
2018-04-23T13:54:58.373Z,3.57
2018-04-23T13:59:01.015Z,3.80
2018-04-23T14:03:03.647Z,4.73
2018-04-23T14:07:06.240Z,3.60
2018-04-23T14:11:08.875Z,4.00
2018-04-23T14:15:11.508Z,3.50
2018-04-23T14:19:14.157Z,3.80
2018-04-23T14:23:16.800Z,3.97
2018-04-23T14:27:19.404Z,4.37
2018-04-23T14:31:22.807Z,4.63
2018-04-23T14:35:26.212Z,5.07
2018-04-23T14:39:29.611Z,4.50
2018-04-23T14:43:32.251Z,4.27
2018-04-23T14:47:34.844Z,4.00
2018-04-23T14:51:37.549Z,4.13
2018-04-23T14:55:40.198Z,4.80
2018-04-23T14:59:42.840Z,4.53
2018-04-23T15:03:45.479Z,3.75
2018-04-23T15:07:48.116Z,4.30
2018-04-23T15:11:50.812Z,4.37
2018-04-23T15:15:53.450Z,4.47
2018-04-23T15:19:56.090Z,4.27
2018-04-23T15:23:58.738Z,5.00
2018-04-23T15:28:01.341Z,4.07
2018-04-23T15:32:04.039Z,4.07
2018-04-23T15:36:06.678Z,4.50
2018-04-23T15:40:09.312Z,4.60
2018-04-23T15:44:12.013Z,4.30
2018-04-23T15:48:14.610Z,4.80
2018-04-23T15:52:17.249Z,4.50
2018-04-23T15:56:19.890Z,4.50
2018-04-23T16:00:23.295Z,3.60
2018-04-23T16:04:26.005Z,4.33
2018-04-23T16:08:29.369Z,4.00
2018-04-23T16:12:32.066Z,3.50
2018-04-23T16:16:34.699Z,3.87
2018-04-23T16:20:37.339Z,3.77
2018-04-23T16:24:40.119Z,3.97
2018-04-23T16:28:42.761Z,4.33
2018-04-23T16:32:45.399Z,3.83
2018-04-23T16:36:48.046Z,3.77
2018-04-23T16:40:50.691Z,3.80
2018-04-23T16:44:53.485Z,3.50
2018-04-23T16:48:56.088Z,3.57
2018-04-23T16:52:59.487Z,3.40
2018-04-23T16:57:02.946Z,4.33
2018-04-23T17:01:05.578Z,3.73
2018-04-23T17:05:08.217Z,4.40
2018-04-23T17:09:10.868Z,4.40
2018-04-23T17:13:14.285Z,4.17
2018-04-23T17:17:16.925Z,3.37
2018-04-23T17:21:19.570Z,3.03
2018-04-23T17:25:22.212Z,2.73
2018-04-23T17:29:24.841Z,2.30
2018-04-23T17:33:27.500Z,2.60
2018-04-23T17:37:30.147Z,1.90
2018-04-23T17:41:32.817Z,2.60
2018-04-23T17:45:35.456Z,2.10
2018-04-23T17:49:38.055Z,2.13
2018-04-23T17:53:40.730Z,1.87
2018-04-23T17:57:44.175Z,2.67
2018-04-23T18:01:47.589Z,2.37
2018-04-23T18:05:51.172Z,2.60
2018-04-23T18:09:53.771Z,2.20
2018-04-23T18:13:57.186Z,2.43
2018-04-23T18:17:59.875Z,2.80
2018-04-23T18:22:03.281Z,2.20
2018-04-23T18:26:06.684Z,2.97
2018-04-23T18:30:10.052Z,3.00
2018-04-23T18:34:12.693Z,2.73
2018-04-23T18:38:15.335Z,2.57
2018-04-23T18:42:18.783Z,2.40
2018-04-23T18:46:21.417Z,2.23
2018-04-23T18:50:24.120Z,2.47
2018-04-23T18:54:26.736Z,2.65
2018-04-23T18:58:29.674Z,2.90
2018-04-23T19:02:32.328Z,2.43
2018-04-23T19:06:35.744Z,2.10
2018-04-23T19:10:38.402Z,2.43
2018-04-23T19:14:41.771Z,2.17
2018-04-23T19:18:44.440Z,2.37
2018-04-23T19:22:47.093Z,3.20
2018-04-23T19:26:50.512Z,2.90
2018-04-23T19:30:53.169Z,2.60
2018-04-23T19:34:55.806Z,2.30
2018-04-23T19:38:58.440Z,2.87
2018-04-23T19:43:01.084Z,2.47
2018-04-23T19:47:03.732Z,2.33
2018-04-23T19:51:07.099Z,2.63
2018-04-23T19:55:09.804Z,2.50
2018-04-23T19:59:12.421Z,3.10
2018-04-23T20:03:15.844Z,2.73
2018-04-23T20:07:18.488Z,2.37
2018-04-23T20:11:21.947Z,2.60
2018-04-23T20:15:25.384Z,2.40
2018-04-23T20:19:28.074Z,2.93
2018-04-23T20:23:30.711Z,2.97
2018-04-23T20:27:34.123Z,2.43
2018-04-23T20:31:37.485Z,2.63
2018-04-23T20:35:40.141Z,2.60
2018-04-23T20:39:42.789Z,2.80
2018-04-23T20:43:45.427Z,2.57
2018-04-23T20:47:48.074Z,2.57
2018-04-23T20:51:51.440Z,4.03
2018-04-23T20:55:54.088Z,2.90
2018-04-23T20:59:56.736Z,2.80
2018-04-23T21:03:59.431Z,2.80
2018-04-23T21:08:02.027Z,2.60
2018-04-23T21:12:05.437Z,3.07
2018-04-23T21:16:08.843Z,2.33
2018-04-23T21:20:12.265Z,2.70
2018-04-23T21:24:14.904Z,2.80
2018-04-23T21:28:17.558Z,3.03
2018-04-23T21:32:20.202Z,2.43
2018-04-23T21:36:22.849Z,2.60
2018-04-23T21:40:25.500Z,2.73
2018-04-23T21:44:28.908Z,2.50
2018-04-23T21:48:31.512Z,3.13
2018-04-23T21:52:34.148Z,3.03
2018-04-23T21:56:36.792Z,3.33
2018-04-23T22:00:39.437Z,3.10
2018-04-23T22:04:42.901Z,2.90
2018-04-23T22:08:45.510Z,3.13
2018-04-23T22:12:48.160Z,3.23
2018-04-23T22:16:50.800Z,3.07
2018-04-23T22:20:53.438Z,3.77
2018-04-23T22:24:56.153Z,3.40
2018-04-23T22:28:58.766Z,3.47
2018-04-23T22:33:01.403Z,3.30
2018-04-23T22:37:04.042Z,3.33
2018-04-23T22:41:06.689Z,3.43
2018-04-23T22:45:09.341Z,2.90
2018-04-23T22:49:12.759Z,3.60
2018-04-23T22:53:15.396Z,3.20
2018-04-23T22:57:18.038Z,3.37
2018-04-23T23:01:20.676Z,2.87
2018-04-23T23:05:23.326Z,3.00
2018-04-23T23:09:25.976Z,2.90
2018-04-23T23:13:28.625Z,3.60
2018-04-23T23:17:31.264Z,3.20
2018-04-23T23:21:33.995Z,3.40
2018-04-23T23:25:36.632Z,3.30
2018-04-23T23:29:40.009Z,3.60
2018-04-23T23:33:43.464Z,3.20
2018-04-23T23:37:46.118Z,3.53
2018-04-23T23:41:48.773Z,3.23
2018-04-23T23:45:51.407Z,3.33
2018-04-23T23:49:54.004Z,3.40
2018-04-23T23:53:57.411Z,3.40
2018-04-23T23:58:00.873Z,4.13
